createdAt,value
2022-12-15T00:01:43.470Z,9.02
2022-12-15T00:04:29.363Z,10.73
2022-12-15T00:07:14.915Z,8.90
2022-12-15T00:10:00.637Z,8.38
2022-12-15T00:12:46.146Z,9.05
2022-12-15T00:15:31.626Z,9.77
2022-12-15T00:18:16.890Z,8.20
2022-12-15T00:21:02.980Z,7.95
2022-12-15T00:23:48.336Z,8.38
2022-12-15T00:26:33.827Z,8.25
2022-12-15T00:29:19.290Z,9.85
2022-12-15T00:32:04.636Z,8.85
2022-12-15T00:34:50.044Z,7.57
2022-12-15T00:37:35.617Z,8.27
2022-12-15T00:40:04.773Z,8.48
2022-12-15T00:42:31.428Z,11.02
2022-12-15T00:44:59.023Z,13.15
2022-12-15T00:48:25.427Z,10.57
2022-12-15T00:51:50.463Z,8.95
2022-12-15T00:55:15.428Z,9.52
2022-12-15T01:01:53.280Z,9.50
2022-12-15T01:04:38.730Z,10.02
2022-12-15T01:07:23.881Z,11.40
2022-12-15T01:10:09.484Z,11.43
2022-12-15T01:12:54.860Z,10.38
2022-12-15T01:15:40.305Z,10.30
2022-12-15T01:18:25.708Z,8.30
2022-12-15T01:20:57.544Z,9.73
2022-12-15T01:23:24.529Z,11.05
2022-12-15T01:25:55.215Z,10.60
2022-12-15T01:28:22.463Z,8.38
2022-12-15T01:30:49.393Z,7.88
2022-12-15T01:33:17.279Z,12.38
2022-12-15T01:35:44.232Z,8.25
2022-12-15T01:38:11.558Z,9.20
2022-12-15T01:40:47.619Z,8.10
2022-12-15T01:43:19.141Z,10.77
2022-12-15T01:45:49.102Z,9.00
2022-12-15T01:48:23.439Z,9.93
2022-12-15T01:51:12.339Z,10.07
2022-12-15T01:54:09.900Z,10.35
2022-12-15T01:56:50.735Z,9.88
2022-12-15T01:59:24.480Z,10.05
2022-12-15T02:01:51.654Z,8.75
2022-12-15T02:04:21.692Z,9.27
2022-12-15T02:06:48.874Z,9.38
2022-12-15T02:09:16.182Z,7.07
2022-12-15T02:12:21.091Z,9.98
2022-12-15T02:15:09.803Z,11.68
2022-12-15T02:17:41.183Z,9.60
2022-12-15T02:20:26.812Z,8.73
2022-12-15T02:23:28.414Z,9.32
2022-12-15T02:26:04.424Z,7.70
2022-12-15T02:28:42.939Z,10.73
2022-12-15T02:31:37.054Z,8.60
2022-12-15T02:34:11.825Z,9.55
2022-12-15T02:36:47.913Z,11.63
2022-12-15T02:39:15.016Z,11.73
2022-12-15T02:41:44.999Z,7.75
2022-12-15T02:44:31.824Z,7.57
2022-12-15T02:47:13.659Z,8.20
2022-12-15T02:49:46.222Z,8.60
2022-12-15T02:52:32.549Z,7.05
2022-12-15T02:55:11.416Z,7.53
2022-12-15T02:58:03.245Z,7.75
2022-12-15T03:00:35.259Z,10.82
2022-12-15T03:03:02.131Z,8.80
2022-12-15T03:05:32.117Z,6.57
2022-12-15T03:07:58.944Z,9.65
2022-12-15T03:10:26.397Z,6.13
2022-12-15T03:12:54.593Z,9.52
2022-12-15T03:15:21.875Z,8.23
2022-12-15T03:17:48.719Z,8.55
2022-12-15T03:20:15.924Z,6.20
2022-12-15T03:22:42.747Z,9.60
2022-12-15T03:25:09.545Z,8.80
2022-12-15T03:27:36.223Z,9.30
2022-12-15T03:30:03.433Z,8.50
2022-12-15T03:32:30.332Z,6.43
2022-12-15T03:34:56.928Z,5.43
2022-12-15T03:37:23.928Z,9.77
2022-12-15T03:39:50.579Z,8.90
2022-12-15T03:42:37.355Z,7.75
2022-12-15T03:45:04.706Z,9.95
2022-12-15T03:47:32.156Z,10.98
2022-12-15T03:49:59.023Z,5.82
2022-12-15T03:52:25.731Z,6.53
2022-12-15T03:55:52.359Z,11.32
2022-12-15T03:59:18.774Z,6.78
2022-12-15T04:05:38.412Z,7.30
2022-12-15T04:08:05.603Z,5.90
2022-12-15T04:10:34.911Z,8.85
2022-12-15T04:13:07.630Z,8.20
2022-12-15T04:15:35.326Z,10.27
2022-12-15T04:18:03.825Z,5.85
2022-12-15T04:20:31.068Z,7.32
2022-12-15T04:22:57.736Z,9.30
2022-12-15T04:25:44.834Z,7.47
2022-12-15T04:28:31.238Z,8.43
2022-12-15T04:31:28.919Z,7.38
2022-12-15T04:34:19.928Z,7.78
2022-12-15T04:37:09.207Z,9.05
2022-12-15T04:39:56.863Z,8.02
2022-12-15T04:42:42.661Z,7.25
2022-12-15T04:45:29.445Z,6.45
2022-12-15T04:48:14.978Z,8.45
2022-12-15T04:51:00.043Z,8.30
2022-12-15T04:53:45.540Z,8.73
2022-12-15T04:56:32.234Z,7.13
2022-12-15T04:59:18.400Z,10.27
2022-12-15T05:02:03.927Z,5.85
2022-12-15T05:04:49.696Z,7.45
2022-12-15T05:07:35.497Z,9.30
2022-12-15T05:10:21.550Z,6.75
2022-12-15T05:13:06.732Z,5.00
2022-12-15T05:15:52.913Z,5.30
2022-12-15T05:18:39.240Z,6.75
2022-12-15T05:21:25.643Z,6.75
2022-12-15T05:24:11.067Z,9.73
2022-12-15T05:26:56.819Z,7.07
2022-12-15T05:29:42.350Z,7.07
2022-12-15T05:32:09.336Z,8.18
2022-12-15T05:34:37.433Z,6.40
2022-12-15T05:37:06.823Z,6.70
2022-12-15T05:39:33.902Z,5.68
2022-12-15T05:42:00.692Z,10.02
2022-12-15T05:44:28.951Z,8.25
2022-12-15T05:46:55.737Z,8.95
2022-12-15T05:49:23.411Z,6.93
2022-12-15T05:51:50.418Z,4.40
2022-12-15T05:54:19.600Z,8.55
2022-12-15T05:56:47.123Z,6.03
2022-12-15T05:59:17.166Z,8.20
2022-12-15T06:01:44.263Z,7.63
2022-12-15T06:04:12.954Z,6.63
2022-12-15T06:06:40.661Z,5.68
2022-12-15T06:09:07.557Z,5.07
2022-12-15T06:11:34.315Z,7.38
2022-12-15T06:14:00.981Z,8.25
2022-12-15T06:16:28.366Z,7.32
2022-12-15T06:18:58.602Z,6.72
2022-12-15T06:21:28.635Z,6.53
2022-12-15T06:23:56.750Z,7.63
2022-12-15T06:26:26.551Z,8.20
2022-12-15T06:28:56.277Z,6.43
2022-12-15T06:31:25.700Z,7.57
2022-12-15T06:34:01.051Z,6.25
2022-12-15T06:36:29.357Z,7.90
2022-12-15T06:38:59.466Z,5.93
2022-12-15T06:41:26.802Z,5.53
2022-12-15T06:43:57.932Z,8.95
2022-12-15T06:46:26.110Z,7.15
2022-12-15T06:48:53.322Z,6.95
2022-12-15T06:51:20.736Z,10.30
2022-12-15T06:53:54.097Z,6.32
2022-12-15T06:56:34.677Z,6.07
2022-12-15T06:59:03.752Z,4.25
2022-12-15T07:01:31.487Z,8.70
2022-12-15T07:04:03.354Z,8.50
2022-12-15T07:06:36.750Z,9.63
2022-12-15T07:09:05.526Z,5.32
2022-12-15T07:11:32.153Z,8.00
2022-12-15T07:13:58.915Z,8.43
2022-12-15T07:16:25.840Z,7.72
2022-12-15T07:18:52.631Z,4.60
2022-12-15T07:21:19.359Z,6.22
2022-12-15T07:23:55.825Z,8.65
2022-12-15T07:26:23.707Z,5.03
2022-12-15T07:28:50.701Z,6.63
2022-12-15T07:31:17.988Z,5.78
2022-12-15T07:33:45.057Z,6.75
2022-12-15T07:36:12.330Z,6.55
2022-12-15T07:38:39.278Z,7.80
2022-12-15T07:41:08.360Z,6.45
2022-12-15T07:43:36.426Z,5.75
2022-12-15T07:46:05.148Z,10.68
2022-12-15T07:48:32.953Z,7.68
2022-12-15T07:51:08.478Z,8.55
2022-12-15T07:53:38.124Z,6.93
2022-12-15T07:56:08.439Z,5.80
2022-12-15T07:58:36.771Z,10.65
2022-12-15T08:01:06.887Z,6.30
2022-12-15T08:03:34.450Z,8.65
2022-12-15T08:06:13.700Z,13.20
2022-12-15T08:08:40.681Z,9.38
2022-12-15T08:11:09.143Z,6.22
2022-12-15T08:16:23.746Z,5.72
2022-12-15T08:18:50.565Z,6.70
2022-12-15T08:21:17.399Z,8.10
2022-12-15T08:23:44.693Z,7.60
2022-12-15T08:26:14.532Z,5.40
2022-12-15T08:28:41.992Z,4.90
2022-12-15T08:31:11.147Z,6.10
2022-12-15T08:33:38.353Z,5.40
2022-12-15T08:36:08.427Z,8.15
2022-12-15T08:38:36.868Z,8.15
2022-12-15T08:41:11.957Z,8.90
2022-12-15T08:43:45.756Z,6.57
2022-12-15T08:46:16.060Z,6.55
2022-12-15T08:48:43.155Z,5.97
2022-12-15T08:51:10.323Z,6.50
2022-12-15T08:53:37.076Z,8.25
2022-12-15T08:56:12.453Z,5.35
2022-12-15T08:58:39.917Z,6.60
2022-12-15T09:01:10.871Z,6.03
2022-12-15T09:03:37.764Z,7.68
2022-12-15T09:06:13.337Z,5.45
2022-12-15T09:08:40.451Z,8.70
2022-12-15T09:11:07.199Z,7.00
2022-12-15T09:13:35.275Z,6.00
2022-12-15T09:16:10.277Z,6.95
2022-12-15T09:18:38.016Z,10.57
2022-12-15T09:21:06.698Z,5.07
2022-12-15T09:23:35.312Z,8.32
2022-12-15T09:26:04.895Z,8.52
2022-12-15T09:28:35.128Z,5.25
2022-12-15T09:31:10.641Z,5.32
2022-12-15T09:33:37.960Z,5.32
2022-12-15T09:36:05.361Z,10.18
2022-12-15T09:38:34.840Z,9.82
2022-12-15T09:41:29.974Z,7.97
2022-12-15T09:44:04.261Z,7.72
2022-12-15T09:46:49.774Z,6.30
2022-12-15T09:49:35.269Z,7.95
2022-12-15T09:52:11.053Z,4.82
2022-12-15T09:54:38.940Z,11.13
2022-12-15T09:57:14.818Z,9.63
2022-12-15T09:59:55.868Z,7.43
2022-12-15T10:02:37.881Z,8.50
2022-12-15T10:05:22.161Z,7.05
2022-12-15T10:07:50.728Z,8.20
2022-12-15T10:10:41.911Z,10.02
2022-12-15T10:13:30.493Z,10.10
2022-12-15T10:16:14.710Z,7.15
2022-12-15T10:18:57.565Z,8.38
2022-12-15T10:21:28.404Z,7.40
2022-12-15T10:24:04.098Z,9.00
2022-12-15T10:26:35.378Z,8.35
2022-12-15T10:29:39.596Z,8.60
2022-12-15T10:32:20.157Z,9.50
2022-12-15T10:34:47.046Z,8.02
2022-12-15T10:37:18.876Z,8.55
2022-12-15T10:39:50.284Z,6.65
2022-12-15T10:42:25.758Z,7.70
2022-12-15T10:44:56.232Z,8.07
2022-12-15T10:47:26.259Z,10.63
2022-12-15T10:49:58.376Z,14.70
2022-12-15T10:52:51.956Z,12.50
2022-12-15T10:58:03.153Z,5.68
2022-12-15T11:00:32.041Z,8.38
2022-12-15T11:02:59.964Z,10.68
2022-12-15T11:05:27.651Z,7.53
2022-12-15T11:08:17.668Z,7.78
2022-12-15T11:11:13.839Z,9.15
2022-12-15T11:13:42.023Z,6.00
2022-12-15T11:16:19.806Z,9.00
2022-12-15T11:18:52.666Z,9.05
2022-12-15T11:21:22.522Z,10.05
2022-12-15T11:24:08.072Z,6.65
2022-12-15T11:26:50.808Z,6.03
2022-12-15T11:29:23.783Z,5.60
2022-12-15T11:31:55.328Z,7.13
2022-12-15T11:34:26.256Z,6.40
2022-12-15T11:37:13.590Z,6.20
2022-12-15T11:39:52.348Z,10.32
2022-12-15T11:42:39.282Z,10.80
2022-12-15T11:45:57.078Z,6.65
2022-12-15T11:49:02.864Z,9.90
2022-12-15T11:51:58.283Z,5.57
2022-12-15T11:54:45.485Z,7.05
2022-12-15T11:57:15.275Z,6.97
2022-12-15T11:59:48.006Z,7.40
2022-12-15T12:02:42.009Z,9.98
2022-12-15T12:05:30.023Z,11.20
2022-12-15T12:08:24.565Z,7.75
2022-12-15T12:11:09.862Z,10.13
2022-12-15T12:14:11.912Z,9.65
2022-12-15T12:16:48.639Z,8.60
2022-12-15T12:19:41.970Z,9.65
2022-12-15T12:22:34.780Z,9.10
2022-12-15T12:25:05.271Z,9.05
2022-12-15T12:27:45.040Z,7.55
2022-12-15T12:30:18.612Z,8.48
2022-12-15T12:32:56.587Z,7.93
2022-12-15T12:35:38.308Z,6.88
2022-12-15T12:38:07.846Z,9.55
2022-12-15T12:40:41.798Z,10.13
2022-12-15T12:43:14.063Z,10.38
2022-12-15T12:45:57.439Z,8.27
2022-12-15T12:48:56.312Z,11.63
2022-12-15T12:51:25.504Z,6.15
2022-12-15T12:53:52.677Z,10.98
2022-12-15T12:56:45.480Z,9.38
2022-12-15T12:59:50.370Z,5.50
2022-12-15T13:02:26.781Z,6.15
2022-12-15T13:05:04.005Z,11.52
2022-12-15T13:07:42.132Z,6.95
2022-12-15T13:10:08.789Z,10.13
2022-12-15T13:12:54.725Z,11.77
2022-12-15T13:15:27.763Z,10.13
2022-12-15T13:18:14.223Z,12.48
2022-12-15T13:20:42.446Z,8.27
2022-12-15T13:23:37.453Z,11.30
2022-12-15T13:26:04.261Z,7.30
2022-12-15T13:28:39.192Z,9.48
2022-12-15T13:31:18.907Z,12.02
2022-12-15T13:33:52.812Z,13.27
2022-12-15T13:36:38.109Z,8.98
2022-12-15T13:39:27.960Z,6.88
2022-12-15T13:44:57.358Z,6.72
2022-12-15T13:47:28.191Z,8.02
2022-12-15T13:50:19.754Z,7.70
2022-12-15T13:53:17.923Z,10.13
2022-12-15T13:55:46.380Z,7.43
2022-12-15T13:58:20.409Z,8.60
2022-12-15T14:00:54.173Z,7.88
2022-12-15T14:03:21.469Z,7.47
2022-12-15T14:05:51.191Z,5.47
2022-12-15T14:08:19.664Z,9.18
2022-12-15T14:10:55.366Z,7.50
2022-12-15T14:13:26.701Z,14.98
2022-12-15T14:16:00.187Z,8.98
2022-12-15T14:18:34.350Z,11.32
2022-12-15T14:21:05.396Z,9.65
2022-12-15T14:24:11.292Z,7.65
2022-12-15T14:26:32.067Z,9.07
2022-12-15T14:29:05.310Z,10.38
2022-12-15T14:31:32.494Z,12.18
2022-12-15T14:34:19.275Z,7.18
2022-12-15T14:36:46.497Z,11.30
2022-12-15T14:39:36.413Z,8.27
2022-12-15T14:42:04.406Z,8.18
2022-12-15T14:44:48.087Z,9.77
2022-12-15T14:47:27.289Z,10.02
2022-12-15T14:49:56.113Z,8.45
2022-12-15T14:52:27.270Z,8.18
2022-12-15T14:54:57.631Z,9.40
2022-12-15T14:57:40.844Z,13.18
2022-12-15T15:00:26.344Z,9.30
2022-12-15T15:03:18.147Z,11.02
2022-12-15T15:05:48.901Z,9.68
2022-12-15T15:08:30.062Z,10.98
2022-12-15T15:11:18.902Z,10.48
2022-12-15T15:13:46.119Z,14.32
2022-12-15T15:16:19.043Z,10.50
2022-12-15T15:18:51.705Z,16.30
2022-12-15T15:21:22.381Z,12.98
2022-12-15T15:24:25.644Z,14.20
2022-12-15T15:26:53.552Z,10.98
2022-12-15T15:29:41.180Z,8.15
2022-12-15T15:32:22.549Z,12.98
2022-12-15T15:34:49.652Z,12.55
2022-12-15T15:37:26.245Z,13.32
2022-12-15T15:39:56.042Z,14.90
2022-12-15T15:42:26.620Z,16.75
2022-12-15T15:44:58.117Z,14.55
2022-12-15T15:47:25.817Z,13.55
2022-12-15T15:49:55.051Z,14.68
2022-12-15T15:52:22.649Z,12.88
2022-12-15T15:54:49.747Z,13.07
2022-12-15T15:57:17.972Z,13.60
2022-12-15T15:59:45.600Z,13.15
2022-12-15T16:02:14.277Z,13.15
2022-12-15T16:04:42.668Z,14.80
2022-12-15T16:07:29.423Z,12.48
2022-12-15T16:09:56.850Z,11.15
2022-12-15T16:12:36.229Z,58.40
2022-12-15T16:15:02.871Z,27.65
2022-12-15T16:17:29.586Z,25.02
2022-12-15T16:19:56.529Z,20.35
2022-12-15T16:22:23.497Z,24.75
2022-12-15T16:24:50.910Z,15.18
2022-12-15T16:27:17.815Z,26.17
2022-12-15T16:29:44.632Z,15.23
2022-12-15T16:32:12.565Z,11.20
2022-12-15T16:34:39.435Z,12.50
2022-12-15T16:37:08.804Z,13.27
2022-12-15T16:39:35.613Z,12.00
2022-12-15T16:42:02.914Z,11.07
2022-12-15T16:44:29.903Z,8.38
2022-12-15T16:46:57.613Z,10.60
2022-12-15T16:49:25.072Z,10.82
2022-12-15T16:51:53.734Z,13.13
2022-12-15T16:54:25.357Z,13.15
2022-12-15T16:56:57.067Z,11.90
2022-12-15T16:59:34.878Z,13.68
2022-12-15T17:02:16.189Z,11.90
2022-12-15T17:04:43.052Z,16.92
2022-12-15T17:07:19.563Z,17.05
2022-12-15T17:09:47.545Z,13.43
2022-12-15T17:12:17.613Z,14.95
2022-12-15T17:14:45.065Z,13.00
2022-12-15T17:17:16.627Z,14.70
2022-12-15T17:19:57.853Z,12.65
2022-12-15T17:22:26.804Z,16.45
2022-12-15T17:24:53.537Z,16.98
2022-12-15T17:27:28.292Z,23.80
2022-12-15T17:30:00.629Z,28.05
2022-12-15T17:32:27.260Z,24.13
2022-12-15T17:34:54.069Z,24.33
2022-12-15T17:37:20.992Z,15.43
2022-12-15T17:39:51.525Z,17.67
2022-12-15T17:42:20.522Z,20.02
2022-12-15T17:44:48.857Z,18.85
2022-12-15T17:47:16.807Z,18.13
2022-12-15T17:49:44.223Z,18.95
2022-12-15T17:52:28.443Z,18.42
2022-12-15T17:54:56.072Z,19.58
2022-12-15T17:57:22.900Z,20.73
2022-12-15T17:59:50.072Z,19.75
2022-12-15T18:02:17.296Z,19.70
2022-12-15T18:04:44.374Z,23.08
2022-12-15T18:07:22.971Z,19.20
2022-12-15T18:09:53.244Z,24.30
2022-12-15T18:12:25.638Z,25.75
2022-12-15T18:14:53.085Z,22.40
2022-12-15T18:17:20.268Z,23.45
2022-12-15T18:19:47.000Z,24.25
2022-12-15T18:22:22.269Z,21.65
2022-12-15T18:24:50.404Z,24.52
2022-12-15T18:27:26.643Z,30.08
2022-12-15T18:29:54.235Z,21.30
2022-12-15T18:32:24.404Z,27.63
2022-12-15T18:34:51.661Z,22.20
2022-12-15T18:37:21.391Z,25.13
2022-12-15T18:39:48.441Z,25.27
2022-12-15T18:42:17.727Z,29.08
2022-12-15T18:44:47.730Z,27.05
2022-12-15T18:47:20.077Z,31.60
2022-12-15T18:49:47.219Z,35.85
2022-12-15T18:54:52.681Z,26.83
2022-12-15T18:57:40.867Z,32.78
2022-12-15T19:00:13.666Z,32.25
2022-12-15T19:02:41.632Z,28.02
2022-12-15T19:05:27.392Z,30.38
2022-12-15T19:07:57.344Z,25.52
2022-12-15T19:10:27.002Z,27.42
2022-12-15T19:12:58.364Z,26.75
2022-12-15T19:15:25.624Z,31.27
2022-12-15T19:18:11.055Z,32.40
2022-12-15T19:20:56.914Z,29.83
2022-12-15T19:23:23.656Z,31.17
2022-12-15T19:25:52.309Z,29.83
2022-12-15T19:28:22.421Z,23.35
2022-12-15T19:30:50.352Z,27.50
2022-12-15T19:33:18.241Z,22.10
2022-12-15T19:35:50.536Z,18.58
2022-12-15T19:38:22.390Z,24.38
2022-12-15T19:40:53.348Z,26.00
2022-12-15T19:43:21.498Z,32.30
2022-12-15T19:45:49.738Z,20.15
2022-12-15T19:48:22.938Z,24.45
2022-12-15T19:50:52.476Z,33.13
2022-12-15T19:53:26.239Z,25.27
2022-12-15T19:55:55.703Z,24.38
2022-12-15T19:58:32.167Z,24.25
2022-12-15T20:01:12.687Z,23.52
2022-12-15T20:03:39.799Z,23.08
2022-12-15T20:06:14.337Z,34.67
2022-12-15T20:08:43.537Z,25.73
2022-12-15T20:11:18.903Z,31.63
2022-12-15T20:13:46.934Z,22.48
2022-12-15T20:16:17.532Z,25.65
2022-12-15T20:18:49.452Z,29.52
2022-12-15T20:22:16.720Z,27.25
2022-12-15T20:24:44.731Z,30.52
2022-12-15T20:27:17.256Z,29.13
2022-12-15T20:29:44.982Z,31.60
2022-12-15T20:32:20.869Z,26.88
2022-12-15T20:34:48.074Z,30.65
2022-12-15T20:37:18.709Z,26.95
2022-12-15T20:39:45.443Z,28.38
2022-12-15T20:42:18.975Z,29.02
2022-12-15T20:44:45.721Z,30.20
2022-12-15T20:47:22.379Z,22.92
2022-12-15T20:49:50.524Z,25.13
2022-12-15T20:52:25.676Z,25.58
2022-12-15T20:54:54.159Z,29.23
2022-12-15T20:57:20.835Z,33.67
2022-12-15T20:59:47.672Z,30.58
2022-12-15T21:02:19.740Z,25.50
2022-12-15T21:04:47.158Z,27.73
2022-12-15T21:07:14.236Z,25.00
2022-12-15T21:09:40.972Z,25.38
2022-12-15T21:12:27.939Z,27.30
2022-12-15T21:14:55.161Z,27.20
2022-12-15T21:17:24.210Z,31.38
2022-12-15T21:19:51.021Z,38.70
2022-12-15T21:22:25.029Z,28.30
2022-12-15T21:24:54.223Z,24.42
2022-12-15T21:27:22.011Z,29.63
2022-12-15T21:29:52.714Z,30.00
2022-12-15T21:32:20.152Z,24.85
2022-12-15T21:34:46.864Z,27.63
2022-12-15T21:37:44.602Z,32.13
2022-12-15T21:40:17.832Z,30.08
2022-12-15T21:42:44.813Z,27.08
2022-12-15T21:45:23.023Z,27.48
2022-12-15T21:48:09.436Z,26.98
2022-12-15T21:50:38.097Z,30.55
2022-12-15T21:53:06.406Z,25.08
2022-12-15T21:55:33.150Z,28.75
2022-12-15T21:57:59.940Z,25.63
2022-12-15T22:00:26.717Z,31.25
2022-12-15T22:02:53.893Z,28.20
2022-12-15T22:05:29.501Z,24.25
2022-12-15T22:07:58.510Z,26.25
2022-12-15T22:10:25.451Z,27.95
2022-12-15T22:12:59.389Z,26.73
2022-12-15T22:15:28.892Z,27.92
2022-12-15T22:17:56.425Z,28.17
2022-12-15T22:20:24.616Z,28.15
2022-12-15T22:22:51.483Z,27.63
2022-12-15T22:25:19.536Z,27.67
2022-12-15T22:27:46.891Z,34.67
2022-12-15T22:30:18.650Z,33.97
2022-12-15T22:32:46.047Z,36.80
2022-12-15T22:35:24.218Z,30.08
2022-12-15T22:37:53.954Z,27.35
2022-12-15T22:40:23.629Z,29.83
2022-12-15T22:42:55.049Z,35.15
2022-12-15T22:45:24.212Z,26.20
2022-12-15T22:47:52.440Z,31.58
2022-12-15T22:50:25.126Z,26.10
2022-12-15T22:52:52.027Z,30.40
2022-12-15T22:56:18.731Z,27.75
2022-12-15T23:03:27.094Z,32.40
2022-12-15T23:06:53.500Z,33.20
2022-12-15T23:10:20.107Z,36.60
2022-12-15T23:13:46.568Z,33.72
2022-12-15T23:17:13.163Z,39.72
2022-12-15T23:20:39.579Z,31.00
2022-12-15T23:23:07.267Z,33.22
2022-12-15T23:25:33.951Z,30.52
2022-12-15T23:28:00.656Z,35.58
2022-12-15T23:30:27.689Z,29.02
2022-12-15T23:32:55.179Z,28.17
2022-12-15T23:35:22.226Z,33.30
2022-12-15T23:37:49.044Z,32.17
2022-12-15T23:40:21.367Z,30.55
2022-12-15T23:42:49.602Z,31.83
2022-12-15T23:45:17.793Z,28.85
2022-12-15T23:47:44.602Z,30.75
2022-12-15T23:50:11.459Z,28.08
2022-12-15T23:52:38.128Z,32.97
2022-12-15T23:55:05.125Z,29.23
2022-12-15T23:57:31.971Z,28.17
2022-12-15T23:59:58.709Z,27.38
